Time;durP1;ratioP1;P1;durP2;ratioP2;P2;SDS_P1;SDS_P2;PMS_P1;PMS_P2;Temp;Humidity;BMP_temperature;BMP_pressure;BME280_temperature;BME280_humidity;BME280_pressure;Samples;Min_cycle;Max_cycle;Signal;HPM_P1;HPM_P2
2022/01/07 00:00:20;;;;;;;15.60;5.13;;;3.90;99.90;;;;;;5135238;27;20135;-75
2022/01/07 00:02:54;;;;;;;17.67;4.78;;;3.90;99.90;;;;;;5134708;27;20031;-76
2022/01/07 00:05:21;;;;;;;15.77;5.60;;;3.90;99.90;;;;;;5134140;27;20035;-75
2022/01/07 00:07:47;;;;;;;15.07;4.90;;;4.10;99.90;;;;;;5133916;27;20135;-76
2022/01/07 00:10:15;;;;;;;14.80;5.28;;;3.80;99.90;;;;;;5133855;27;20096;-75
2022/01/07 00:12:41;;;;;;;14.10;5.38;;;3.80;99.90;;;;;;5134015;27;20051;-75
2022/01/07 00:15:07;;;;;;;14.93;5.80;;;3.80;99.90;;;;;;5133519;27;20047;-76
2022/01/07 00:17:33;;;;;;;11.45;5.38;;;3.80;99.90;;;;;;5134088;27;20428;-75
2022/01/07 00:19:59;;;;;;;18.08;5.18;;;3.70;99.90;;;;;;5133532;27;20043;-75
2022/01/07 00:22:25;;;;;;;17.50;5.57;;;3.70;99.90;;;;;;5133406;27;20069;-75
2022/01/07 00:24:51;;;;;;;13.23;5.20;;;3.70;99.90;;;;;;5133942;27;20043;-76
2022/01/07 00:27:17;;;;;;;11.57;4.93;;;3.70;99.90;;;;;;5134292;27;20035;-75
2022/01/07 00:29:43;;;;;;;19.92;5.18;;;3.70;99.90;;;;;;5133645;27;20130;-75
2022/01/07 00:32:09;;;;;;;13.63;4.47;;;3.60;99.90;;;;;;5133908;27;20490;-76
2022/01/07 00:34:34;;;;;;;15.57;5.22;;;3.60;99.90;;;;;;5133173;27;20051;-75
2022/01/07 00:37:00;;;;;;;11.95;4.40;;;3.60;99.90;;;;;;5133645;27;20119;-75
2022/01/07 00:39:26;;;;;;;12.88;5.10;;;3.60;99.90;;;;;;5133518;27;20464;-75
2022/01/07 00:41:52;;;;;;;17.58;5.03;;;3.50;99.90;;;;;;5134382;27;20043;-75
2022/01/07 00:44:17;;;;;;;17.90;4.90;;;3.60;99.90;;;;;;5132896;28;20533;-76
2022/01/07 00:46:43;;;;;;;16.92;4.70;;;3.40;99.90;;;;;;5133747;27;20043;-75
2022/01/07 00:49:10;;;;;;;13.70;5.13;;;3.40;99.90;;;;;;5132824;28;20134;-75
2022/01/07 00:51:36;;;;;;;11.82;4.50;;;3.40;99.90;;;;;;5133504;28;20051;-75
2022/01/07 00:54:02;;;;;;;17.33;5.03;;;3.40;99.90;;;;;;5133641;27;20394;-75
2022/01/07 00:56:28;;;;;;;19.10;5.25;;;3.40;99.90;;;;;;5132487;28;20043;-75
2022/01/07 00:58:54;;;;;;;14.35;4.28;;;3.60;99.90;;;;;;5134354;27;20050;-75
2022/01/07 01:01:19;;;;;;;15.60;4.78;;;3.40;99.90;;;;;;5132243;28;20066;-75
2022/01/07 01:03:45;;;;;;;12.75;5.40;;;3.30;99.90;;;;;;5134355;27;20065;-75
2022/01/07 01:06:11;;;;;;;14.60;5.18;;;3.30;99.90;;;;;;5137678;27;20489;-75
2022/01/07 01:08:37;;;;;;;15.70;4.97;;;3.40;99.90;;;;;;5136222;27;20047;-75
2022/01/07 01:11:04;;;;;;;13.82;5.15;;;3.30;99.90;;;;;;5138562;27;20039;-75
2022/01/07 01:13:31;;;;;;;15.15;5.50;;;3.30;99.90;;;;;;5137055;27;20046;-75
2022/01/07 01:15:57;;;;;;;20.70;5.70;;;3.20;99.90;;;;;;5137311;27;20043;-75
2022/01/07 01:18:23;;;;;;;22.27;5.32;;;3.20;99.90;;;;;;5138087;27;20039;-75
2022/01/07 01:20:49;;;;;;;16.50;5.32;;;3.20;99.90;;;;;;5137991;27;20090;-75
2022/01/07 01:23:15;;;;;;;17.27;6.18;;;3.20;99.90;;;;;;5136230;27;20493;-75
2022/01/07 01:25:40;;;;;;;18.15;5.13;;;3.20;99.90;;;;;;5138295;27;20041;-75
2022/01/07 01:28:06;;;;;;;16.35;5.07;;;3.20;99.90;;;;;;5137284;27;20394;-75
2022/01/07 01:30:33;;;;;;;10.02;5.20;;;3.30;99.90;;;;;;5137002;27;20050;-75
2022/01/07 01:32:59;;;;;;;13.68;6.20;;;3.30;99.90;;;;;;5136362;27;20524;-75
2022/01/07 01:35:25;;;;;;;17.75;5.65;;;3.20;99.90;;;;;;5136242;27;20039;-75
2022/01/07 01:37:51;;;;;;;13.93;5.60;;;3.30;99.90;;;;;;5138009;27;20550;-75
2022/01/07 01:40:19;;;;;;;16.15;5.88;;;3.20;99.90;;;;;;5136465;27;20083;-76
2022/01/07 01:42:46;;;;;;;17.55;6.35;;;3.10;99.90;;;;;;5137512;27;20053;-76
2022/01/07 01:45:15;;;;;;;17.45;5.75;;;3.10;99.90;;;;;;5158632;27;20114;-76
2022/01/07 01:47:41;;;;;;;15.85;5.85;;;3.10;99.90;;;;;;5139644;27;20050;-75
2022/01/07 01:50:09;;;;;;;14.13;6.07;;;3.30;99.90;;;;;;5157661;27;20045;-76
2022/01/07 01:52:35;;;;;;;9.43;5.45;;;3.10;99.90;;;;;;5158440;27;20087;-75
2022/01/07 01:55:01;;;;;;;17.33;7.63;;;3.70;99.90;;;;;;5139939;27;20099;-77
2022/01/07 01:57:28;;;;;;;16.15;6.40;;;3.40;99.90;;;;;;5138717;27;20427;-75
2022/01/07 01:59:54;;;;;;;17.33;6.47;;;3.10;99.90;;;;;;5139468;27;20141;-75
2022/01/07 02:02:19;;;;;;;16.85;6.10;;;3.10;99.90;;;;;;5139815;27;20035;-75
2022/01/07 02:04:45;;;;;;;14.93;6.70;;;3.10;99.90;;;;;;5138371;27;20078;-75
2022/01/07 02:07:12;;;;;;;17.65;6.13;;;3.00;99.90;;;;;;5158174;27;20122;-76
2022/01/07 02:09:38;;;;;;;20.63;7.05;;;3.30;99.90;;;;;;5158003;27;20077;-75
2022/01/07 02:12:06;;;;;;;14.95;7.00;;;3.10;99.90;;;;;;5139010;27;20038;-75
2022/01/07 02:14:32;;;;;;;18.65;6.95;;;3.10;99.90;;;;;;5157935;27;20034;-76
2022/01/07 02:17:09;;;;;;;19.60;6.85;;;3.10;99.90;;;;;;5138869;27;20107;-75
2022/01/07 02:19:37;;;;;;;13.98;7.53;;;3.10;99.90;;;;;;5139273;27;20042;-75
2022/01/07 02:22:04;;;;;;;13.95;6.57;;;3.60;99.90;;;;;;5139260;27;20088;-75
2022/01/07 02:24:30;;;;;;;16.35;7.03;;;3.00;99.90;;;;;;5138246;27;20488;-75
2022/01/07 02:26:56;;;;;;;16.42;8.10;;;3.00;99.90;;;;;;5139178;27;20082;-75
2022/01/07 02:29:21;;;;;;;16.30;6.57;;;3.20;99.90;;;;;;5157941;27;20070;-75
2022/01/07 02:31:48;;;;;;;13.05;6.20;;;3.20;99.90;;;;;;5138288;27;20042;-75
2022/01/07 02:34:13;;;;;;;12.82;6.25;;;3.10;99.90;;;;;;5138662;27;20099;-75
2022/01/07 02:36:39;;;;;;;12.32;6.55;;;3.10;99.90;;;;;;5157381;27;20047;-76
2022/01/07 02:39:05;;;;;;;11.70;6.72;;;3.10;99.90;;;;;;5138469;27;20035;-75
2022/01/07 02:41:31;;;;;;;12.73;7.63;;;3.60;99.90;;;;;;5138844;27;20512;-75
2022/01/07 02:43:57;;;;;;;18.35;7.55;;;3.20;99.90;;;;;;5138492;27;20138;-76
2022/01/07 02:46:23;;;;;;;13.55;7.40;;;3.00;99.90;;;;;;5137623;27;20042;-75
2022/01/07 02:48:49;;;;;;;15.43;7.28;;;3.10;99.90;;;;;;5138454;27;20038;-76
2022/01/07 02:51:15;;;;;;;17.33;7.25;;;3.20;99.90;;;;;;5138585;27;20046;-76
2022/01/07 02:53:40;;;;;;;14.85;6.63;;;3.00;99.90;;;;;;5156550;27;20043;-75
2022/01/07 02:56:06;;;;;;;13.23;7.28;;;3.00;99.90;;;;;;5138578;27;20038;-75
2022/01/07 02:58:32;;;;;;;19.15;7.32;;;3.00;99.90;;;;;;5157254;27;20045;-76
2022/01/07 03:00:58;;;;;;;16.38;7.78;;;3.20;99.90;;;;;;5137501;27;20050;-76
2022/01/07 03:03:23;;;;;;;11.43;6.93;;;3.70;99.90;;;;;;5155724;27;20098;-76
2022/01/07 03:05:49;;;;;;;12.00;7.32;;;3.50;99.90;;;;;;5138610;27;20074;-76
2022/01/07 03:08:15;;;;;;;14.77;7.65;;;3.00;99.90;;;;;;5137479;27;20519;-76
2022/01/07 03:10:41;;;;;;;12.95;7.57;;;3.00;99.90;;;;;;5138276;27;20049;-75
2022/01/07 03:13:08;;;;;;;13.98;7.80;;;3.00;99.90;;;;;;5156784;27;20045;-75
2022/01/07 03:15:37;;;;;;;14.77;7.03;;;3.00;99.90;;;;;;5137526;27;20053;-75
2022/01/07 03:18:04;;;;;;;13.63;6.85;;;3.00;99.90;;;;;;5156137;27;20039;-75
2022/01/07 03:20:30;;;;;;;14.40;7.70;;;3.00;99.90;;;;;;5119805;27;20054;-74
2022/01/07 03:22:57;;;;;;;16.33;7.07;;;3.00;99.90;;;;;;5138246;27;20047;-76
2022/01/07 03:25:23;;;;;;;16.65;8.30;;;3.00;99.90;;;;;;5156679;27;20041;-76
2022/01/07 03:27:48;;;;;;;16.50;8.27;;;3.20;99.90;;;;;;5136276;27;20125;-75
2022/01/07 03:30:16;;;;;;;16.48;8.02;;;3.00;99.90;;;;;;5137947;27;20046;-76
2022/01/07 03:32:42;;;;;;;18.00;8.40;;;3.00;99.90;;;;;;5137502;27;20043;-76
2022/01/07 03:35:10;;;;;;;21.77;8.75;;;3.20;99.90;;;;;;5119907;27;20045;-76
2022/01/07 03:37:38;;;;;;;17.33;7.80;;;3.10;99.90;;;;;;5137950;27;20118;-76
2022/01/07 03:40:08;;;;;;;18.02;8.15;;;3.20;99.90;;;;;;5156379;27;20062;-76
2022/01/07 03:42:34;;;;;;;21.08;8.60;;;3.10;99.90;;;;;;5136804;27;20047;-76
2022/01/07 03:45:00;;;;;;;12.45;7.40;;;3.10;99.90;;;;;;5155854;27;20053;-76
2022/01/07 03:47:27;;;;;;;9.88;7.07;;;3.10;99.90;;;;;;5137041;27;20039;-76
2022/01/07 03:49:53;;;;;;;12.30;7.13;;;3.10;99.90;;;;;;5136756;27;20049;-76
2022/01/07 03:52:19;;;;;;;15.15;7.68;;;3.10;99.90;;;;;;5156112;27;20030;-76
2022/01/07 03:54:44;;;;;;;13.15;8.25;;;3.80;99.90;;;;;;5120385;27;20079;-76
2022/01/07 03:57:10;;;;;;;12.70;7.72;;;3.10;99.90;;;;;;5155081;27;20045;-75
2022/01/07 03:59:36;;;;;;;12.20;8.00;;;3.20;99.90;;;;;;5155944;27;20038;-76
2022/01/07 04:02:02;;;;;;;12.98;7.65;;;3.10;99.90;;;;;;5137540;27;20057;-76
2022/01/07 04:04:28;;;;;;;16.35;7.35;;;3.10;99.90;;;;;;5135860;27;20050;-76
2022/01/07 04:06:54;;;;;;;9.90;7.30;;;3.10;99.90;;;;;;5155907;27;20061;-76
2022/01/07 04:09:19;;;;;;;12.43;8.85;;;3.10;99.90;;;;;;5136994;27;20203;-76
2022/01/07 04:11:45;;;;;;;11.32;8.10;;;3.70;99.90;;;;;;5136408;27;20042;-76
2022/01/07 04:14:11;;;;;;;13.18;7.25;;;3.10;99.90;;;;;;5137484;27;20133;-76
2022/01/07 04:16:36;;;;;;;11.23;7.40;;;3.10;99.90;;;;;;5136923;27;20458;-76
2022/01/07 04:19:02;;;;;;;11.50;7.43;;;3.10;99.90;;;;;;5135956;27;20038;-75
2022/01/07 04:21:28;;;;;;;14.93;7.90;;;3.20;99.90;;;;;;5136811;27;20540;-76
2022/01/07 04:23:53;;;;;;;14.55;9.02;;;3.10;99.90;;;;;;5154647;27;20114;-75
2022/01/07 04:26:19;;;;;;;14.00;8.05;;;3.10;99.90;;;;;;5155471;27;20090;-76
2022/01/07 04:28:45;;;;;;;12.02;7.65;;;3.70;99.90;;;;;;5155606;27;20053;-75
2022/01/07 04:31:10;;;;;;;13.57;7.25;;;3.60;99.90;;;;;;5136117;27;20038;-75
2022/01/07 04:33:36;;;;;;;16.83;9.10;;;3.20;99.90;;;;;;5136588;27;20086;-76
2022/01/07 04:36:02;;;;;;;15.70;8.07;;;3.20;99.90;;;;;;5136592;27;20126;-75
2022/01/07 04:38:28;;;;;;;16.60;8.77;;;3.20;99.90;;;;;;5136146;27;20133;-75
2022/01/07 04:40:53;;;;;;;17.48;8.23;;;3.30;99.90;;;;;;5136837;27;20045;-76
2022/01/07 04:43:19;;;;;;;14.50;7.95;;;3.20;99.90;;;;;;5136339;27;20062;-76
2022/01/07 04:45:45;;;;;;;13.63;7.90;;;3.50;99.90;;;;;;5135765;27;20129;-76
2022/01/07 04:48:11;;;;;;;13.52;7.75;;;3.20;99.90;;;;;;5136129;27;20508;-76
2022/01/07 04:50:38;;;;;;;11.32;7.60;;;3.20;99.90;;;;;;5136699;27;20046;-75
2022/01/07 04:53:05;;;;;;;10.48;7.63;;;3.80;99.90;;;;;;5154403;27;20047;-76
2022/01/07 04:55:36;;;;;;;15.05;7.60;;;3.20;99.90;;;;;;5155248;27;20042;-74
2022/01/07 04:58:04;;;;;;;12.15;7.78;;;3.80;99.90;;;;;;5136670;27;20474;-76
2022/01/07 05:00:32;;;;;;;14.30;7.53;;;3.30;99.90;;;;;;5136052;27;20078;-75
2022/01/07 05:02:58;;;;;;;8.55;7.30;;;3.30;99.90;;;;;;5136184;27;20460;-76
2022/01/07 05:05:27;;;;;;;12.00;7.57;;;3.30;99.90;;;;;;5118948;27;20103;-75
2022/01/07 05:07:52;;;;;;;15.10;7.57;;;3.30;99.90;;;;;;5135803;27;20039;-76
2022/01/07 05:10:18;;;;;;;12.48;7.53;;;3.60;99.90;;;;;;5136873;27;20046;-76
2022/01/07 05:12:45;;;;;;;10.60;7.35;;;3.30;99.90;;;;;;5136809;27;20512;-75
2022/01/07 05:15:13;;;;;;;13.60;7.68;;;3.30;99.90;;;;;;5135588;27;20106;-76
2022/01/07 05:17:39;;;;;;;16.77;7.82;;;3.30;99.90;;;;;;5136408;27;20047;-76
2022/01/07 05:20:05;;;;;;;13.15;7.13;;;3.40;99.90;;;;;;5117932;27;20034;-76
2022/01/07 05:22:31;;;;;;;14.48;8.38;;;3.40;99.90;;;;;;5136425;27;20050;-76
2022/01/07 05:24:57;;;;;;;9.15;7.05;;;3.40;99.90;;;;;;5154864;27;20053;-76
2022/01/07 05:27:23;;;;;;;10.82;7.57;;;3.50;99.90;;;;;;5135563;27;20034;-76
2022/01/07 05:29:48;;;;;;;13.55;8.18;;;4.00;99.90;;;;;;5154944;27;20047;-76
2022/01/07 05:32:14;;;;;;;18.67;8.00;;;3.90;99.90;;;;;;5154818;27;20478;-76
2022/01/07 05:34:40;;;;;;;13.05;7.30;;;3.40;99.90;;;;;;5135142;27;20047;-76
2022/01/07 05:37:07;;;;;;;10.20;7.20;;;3.40;99.90;;;;;;5136206;27;20103;-76
2022/01/07 05:39:33;;;;;;;10.80;7.38;;;3.40;99.90;;;;;;5136193;27;20099;-76
2022/01/07 05:41:59;;;;;;;13.13;7.68;;;4.00;99.90;;;;;;5135439;27;20042;-76
2022/01/07 05:44:25;;;;;;;12.90;8.00;;;3.50;99.90;;;;;;5118803;27;20047;-76
2022/01/07 05:46:51;;;;;;;18.42;8.88;;;3.40;99.90;;;;;;5136059;27;20062;-76
2022/01/07 05:49:17;;;;;;;9.88;7.75;;;3.60;99.90;;;;;;5117829;27;20091;-76
2022/01/07 05:51:43;;;;;;;13.05;8.23;;;3.50;99.90;;;;;;5137982;27;20046;-76
2022/01/07 05:54:09;;;;;;;12.60;7.53;;;3.50;99.90;;;;;;5139868;27;20053;-76
2022/01/07 05:56:36;;;;;;;14.73;7.45;;;3.60;99.90;;;;;;5138891;27;20054;-75
2022/01/07 05:59:02;;;;;;;12.15;7.47;;;3.50;99.90;;;;;;5158421;27;20046;-75
2022/01/07 06:01:28;;;;;;;9.63;7.43;;;3.50;99.90;;;;;;5139671;27;20038;-76
2022/01/07 06:03:53;;;;;;;12.05;7.13;;;3.50;99.90;;;;;;5137952;27;20053;-75
2022/01/07 06:06:19;;;;;;;13.77;7.88;;;3.50;99.90;;;;;;5157769;27;20118;-76
2022/01/07 06:08:45;;;;;;;11.18;7.30;;;3.50;99.90;;;;;;5158187;27;20091;-75
2022/01/07 06:11:11;;;;;;;14.25;7.88;;;3.50;99.90;;;;;;5138643;27;20370;-75
2022/01/07 06:13:36;;;;;;;10.45;7.68;;;3.50;99.90;;;;;;5139717;27;20046;-76
2022/01/07 06:16:03;;;;;;;10.88;7.43;;;3.50;99.90;;;;;;5139650;27;20035;-76
2022/01/07 06:18:29;;;;;;;10.60;7.30;;;3.50;99.90;;;;;;5138263;27;20034;-75
2022/01/07 06:20:55;;;;;;;12.40;7.10;;;3.70;99.90;;;;;;5122538;27;20473;-76
2022/01/07 06:23:20;;;;;;;12.38;7.72;;;3.50;99.90;;;;;;5156946;27;20049;-76
2022/01/07 06:25:49;;;;;;;12.18;7.78;;;3.50;99.90;;;;;;5157907;27;20474;-75
2022/01/07 06:28:19;;;;;;;13.07;7.75;;;3.70;99.90;;;;;;5157513;27;20081;-76
2022/01/07 06:30:45;;;;;;;11.82;7.50;;;3.60;99.90;;;;;;5156852;27;20045;-75
2022/01/07 06:33:11;;;;;;;9.82;7.72;;;3.60;99.90;;;;;;5138835;27;20129;-76
2022/01/07 06:35:37;;;;;;;14.93;8.52;;;4.00;99.90;;;;;;5138781;27;20042;-76
2022/01/07 06:38:04;;;;;;;14.40;8.27;;;3.70;99.90;;;;;;5156470;27;20045;-76
2022/01/07 06:40:30;;;;;;;10.88;7.82;;;3.70;99.90;;;;;;5157647;27;20541;-72
2022/01/07 06:42:56;;;;;;;14.05;8.50;;;3.60;99.90;;;;;;5157067;27;20176;-71
2022/01/07 06:45:21;;;;;;;14.02;8.90;;;3.60;99.90;;;;;;5156522;27;20035;-72
2022/01/07 06:47:47;;;;;;;14.32;9.52;;;3.70;99.90;;;;;;5157413;27;20394;-72
2022/01/07 06:50:13;;;;;;;16.60;9.32;;;3.70;99.90;;;;;;5156838;27;20038;-72
2022/01/07 06:52:39;;;;;;;14.98;9.52;;;3.70;99.90;;;;;;5156401;27;20066;-72
2022/01/07 06:55:06;;;;;;;12.63;9.73;;;3.70;99.90;;;;;;5157310;27;20129;-72
2022/01/07 06:57:31;;;;;;;11.40;9.18;;;3.70;99.90;;;;;;5157115;27;20046;-72
2022/01/07 06:59:57;;;;;;;13.57;8.82;;;3.70;99.90;;;;;;5137883;27;20046;-72
2022/01/07 07:02:23;;;;;;;13.25;9.63;;;3.80;99.90;;;;;;5157153;27;20034;-72
2022/01/07 07:04:48;;;;;;;14.18;9.98;;;3.80;99.90;;;;;;5137847;27;20069;-73
2022/01/07 07:07:15;;;;;;;15.02;10.45;;;3.80;99.90;;;;;;5137105;27;20046;-73
2022/01/07 07:09:40;;;;;;;14.82;10.75;;;3.90;99.90;;;;;;5138451;27;20093;-73
2022/01/07 07:12:07;;;;;;;12.27;9.98;;;3.80;99.90;;;;;;5138261;27;20043;-73
2022/01/07 07:14:32;;;;;;;19.75;10.93;;;3.90;99.90;;;;;;5137720;27;20078;-73
2022/01/07 07:16:58;;;;;;;13.98;10.98;;;3.90;99.90;;;;;;5121144;27;20449;-73
2022/01/07 07:19:24;;;;;;;16.92;10.65;;;3.90;99.90;;;;;;5137714;27;20049;-73
2022/01/07 07:21:50;;;;;;;18.45;12.00;;;3.90;99.90;;;;;;5155597;27;20043;-73
2022/01/07 07:24:16;;;;;;;15.90;10.05;;;4.00;99.90;;;;;;5137927;27;20047;-73
2022/01/07 07:26:41;;;;;;;16.42;11.05;;;3.90;99.90;;;;;;5136882;27;20046;-73
2022/01/07 07:29:07;;;;;;;23.40;10.60;;;4.00;99.90;;;;;;5156552;27;20086;-73
2022/01/07 07:31:38;;;;;;;11.10;9.80;;;4.00;99.90;;;;;;5137912;27;20085;-73
2022/01/07 07:36:32;;;;;;;16.92;10.75;;;4.00;99.90;;;;;;5137979;27;20082;-73
2022/01/07 07:39:06;;;;;;;22.92;12.10;;;4.00;99.90;;;;;;5137651;27;20468;-73
2022/01/07 07:41:33;;;;;;;18.20;11.38;;;4.00;99.90;;;;;;5136789;27;20054;-73
2022/01/07 07:43:59;;;;;;;20.77;12.45;;;4.00;99.90;;;;;;5137270;27;20062;-74
2022/01/07 07:46:27;;;;;;;15.98;11.30;;;4.00;99.90;;;;;;5137471;27;20043;-73
2022/01/07 07:48:53;;;;;;;23.38;12.75;;;4.00;99.90;;;;;;5136513;27;20125;-74
2022/01/07 07:51:19;;;;;;;21.33;11.98;;;4.00;99.90;;;;;;5156112;27;20126;-72
2022/01/07 07:53:46;;;;;;;21.98;12.57;;;4.10;99.90;;;;;;5136930;27;20546;-73
2022/01/07 07:56:14;;;;;;;24.55;12.75;;;4.10;99.90;;;;;;5135894;27;20045;-74
2022/01/07 07:58:40;;;;;;;21.00;12.05;;;4.10;99.90;;;;;;5155869;27;20115;-74
2022/01/07 08:01:06;;;;;;;18.77;11.93;;;4.20;99.90;;;;;;5137433;27;20046;-73
2022/01/07 08:03:33;;;;;;;21.55;12.38;;;4.20;99.90;;;;;;5135904;27;20111;-74
2022/01/07 08:05:59;;;;;;;17.67;11.75;;;4.90;99.90;;;;;;5136950;27;20043;-74
2022/01/07 08:08:25;;;;;;;19.25;11.95;;;4.20;99.90;;;;;;5137131;27;20091;-74
2022/01/07 08:10:54;;;;;;;19.73;12.43;;;4.20;99.90;;;;;;5136274;27;20050;-73
2022/01/07 08:15:58;;;;;;;20.27;12.10;;;4.40;99.90;;;;;;5136779;27;20082;-74
2022/01/07 08:16:19;;;;;;;20.20;11.45;;;4.20;99.90;;;;;;5136229;27;20046;-74
2022/01/07 08:18:49;;;;;;;24.67;12.70;;;4.20;99.90;;;;;;5154762;27;20034;-73
2022/01/07 08:21:15;;;;;;;19.52;13.05;;;4.20;99.90;;;;;;5136921;27;20060;-73
2022/01/07 08:23:42;;;;;;;22.65;13.60;;;4.20;99.90;;;;;;5119184;27;20046;-74
2022/01/07 08:26:11;;;;;;;25.55;13.55;;;4.20;99.90;;;;;;5137132;27;20050;-73
2022/01/07 08:28:51;;;;;;;24.75;13.40;;;4.20;99.90;;;;;;5136909;27;20042;-74
2022/01/07 08:36:34;;;;;;;29.40;14.57;;;4.30;99.90;;;;;;5136944;27;20039;-73
2022/01/07 08:39:01;;;;;;;20.50;14.52;;;4.30;99.90;;;;;;5136174;27;20366;-74
2022/01/07 08:41:30;;;;;;;17.33;13.18;;;4.40;99.90;;;;;;5119549;27;20359;-74
2022/01/07 08:43:56;;;;;;;27.25;14.13;;;4.40;99.90;;;;;;5136029;27;20053;-73
2022/01/07 08:46:22;;;;;;;22.10;13.50;;;4.40;99.90;;;;;;5136513;27;20047;-74
2022/01/07 08:48:48;;;;;;;26.67;14.70;;;4.50;99.90;;;;;;5136577;27;20046;-74
2022/01/07 08:51:14;;;;;;;25.63;13.63;;;4.50;99.90;;;;;;5154217;27;20035;-74
2022/01/07 08:53:41;;;;;;;32.17;14.90;;;4.50;99.90;;;;;;5136597;27;20099;-74
2022/01/07 08:56:07;;;;;;;23.33;13.80;;;4.50;99.90;;;;;;5155327;27;20051;-74
2022/01/07 08:58:35;;;;;;;18.50;13.70;;;4.50;99.90;;;;;;5135666;27;20039;-73
2022/01/07 09:01:01;;;;;;;24.73;15.10;;;4.50;99.90;;;;;;5136752;27;20384;-73
2022/01/07 09:03:27;;;;;;;30.73;14.88;;;4.60;99.90;;;;;;5154651;27;20042;-74
2022/01/07 09:05:53;;;;;;;28.88;16.00;;;4.60;99.90;;;;;;5135490;27;20143;-74
2022/01/07 09:08:19;;;;;;;26.10;16.08;;;4.50;99.90;;;;;;5136431;27;20492;-73
2022/01/07 09:10:45;;;;;;;26.17;15.52;;;4.60;99.90;;;;;;5136459;27;20043;-74
2022/01/07 09:13:11;;;;;;;28.42;14.95;;;4.60;99.90;;;;;;5114798;28;20447;-74
2022/01/07 09:15:37;;;;;;;23.52;15.40;;;4.60;99.90;;;;;;5127156;27;20057;-74
2022/01/07 09:18:09;;;;;;;28.10;15.52;;;4.60;99.90;;;;;;5135650;27;20091;-74
2022/01/07 09:20:44;;;;;;;36.90;16.50;;;4.60;99.90;;;;;;5133672;27;20046;-74
2022/01/07 09:23:11;;;;;;;29.67;16.88;;;4.60;99.90;;;;;;5136146;27;20047;-74
2022/01/07 09:25:37;;;;;;;25.58;15.48;;;4.60;99.90;;;;;;5119473;27;20133;-74
2022/01/07 09:28:05;;;;;;;27.88;14.75;;;4.70;99.90;;;;;;5157838;27;20035;-74
2022/01/07 09:30:31;;;;;;;25.25;12.25;;;4.70;99.90;;;;;;5140120;27;20050;-73
2022/01/07 09:32:57;;;;;;;23.73;11.73;;;4.80;99.90;;;;;;5158671;27;20042;-74
2022/01/07 09:35:25;;;;;;;21.17;11.32;;;4.80;99.90;;;;;;5139235;27;20103;-73
2022/01/07 09:37:51;;;;;;;24.73;10.77;;;4.90;99.90;;;;;;5139843;27;20054;-73
2022/01/07 09:40:17;;;;;;;17.35;10.25;;;4.80;99.90;;;;;;5139241;27;20091;-74
2022/01/07 09:43:02;;;;;;;21.85;10.27;;;4.90;99.90;;;;;;5158306;27;20039;-74
2022/01/07 09:45:30;;;;;;;12.45;7.97;;;4.90;99.90;;;;;;5122438;27;20050;-73
2022/01/07 09:47:56;;;;;;;12.40;6.70;;;4.90;99.90;;;;;;5139123;27;20034;-73
2022/01/07 09:50:24;;;;;;;9.80;6.60;;;4.80;99.90;;;;;;5139496;27;20121;-74
2022/01/07 09:52:50;;;;;;;6.57;4.30;;;4.80;99.90;;;;;;5122651;27;20130;-73
2022/01/07 09:55:16;;;;;;;8.30;5.43;;;4.70;99.90;;;;;;5138861;27;20086;-73
2022/01/07 09:57:42;;;;;;;8.00;5.50;;;4.80;99.90;;;;;;5139449;27;20054;-73
2022/01/07 10:00:10;;;;;;;12.45;6.38;;;4.60;99.90;;;;;;5158151;27;20039;-73
2022/01/07 10:02:36;;;;;;;11.73;6.80;;;4.50;99.90;;;;;;5157430;27;20043;-73
2022/01/07 10:05:18;;;;;;;8.90;5.32;;;4.40;99.90;;;;;;5157772;27;20046;-73
2022/01/07 10:07:44;;;;;;;6.03;4.80;;;4.40;99.90;;;;;;5157791;27;20057;-73
2022/01/07 10:10:17;;;;;;;10.30;3.88;;;4.40;99.90;;;;;;5138525;27;20562;-73
2022/01/07 10:13:00;;;;;;;5.88;3.80;;;4.40;99.90;;;;;;5157981;27;20050;-73
2022/01/07 10:15:28;;;;;;;5.65;2.88;;;4.30;99.90;;;;;;5157156;27;20121;-73
2022/01/07 10:18:04;;;;;;;8.02;2.53;;;4.30;99.90;;;;;;5139200;27;20042;-73
2022/01/07 10:20:32;;;;;;;6.78;2.80;;;4.40;99.90;;;;;;5136101;27;20078;-73
2022/01/07 10:23:03;;;;;;;10.02;2.33;;;4.40;99.90;;;;;;5135164;27;20043;-73
2022/01/07 10:25:32;;;;;;;6.32;1.98;;;4.50;99.90;;;;;;5118755;27;20073;-73
2022/01/07 10:28:01;;;;;;;5.18;1.60;;;4.50;99.90;;;;;;5131483;27;20098;-73
2022/01/07 10:30:26;;;;;;;4.15;1.85;;;4.60;99.90;;;;;;5156843;27;20092;-73
2022/01/07 10:32:56;;;;;;;5.07;1.70;;;4.70;99.90;;;;;;5157440;27;20030;-74
2022/01/07 10:35:25;;;;;;;8.27;1.90;;;4.70;99.90;;;;;;5157195;27;20043;-73
2022/01/07 10:38:01;;;;;;;14.48;2.50;;;4.70;99.90;;;;;;5156313;27;20055;-74
2022/01/07 10:40:36;;;;;;;6.03;2.05;;;4.60;99.90;;;;;;5139075;27;20141;-73
2022/01/07 10:43:11;;;;;;;;;;;4.60;99.90;;;;;;5157275;27;20043;-73
2022/01/07 10:45:38;;;;;;;8.48;2.70;;;4.50;99.90;;;;;;5137683;27;19930;-73
2022/01/07 10:48:06;;;;;;;7.78;2.90;;;4.50;99.90;;;;;;5137034;27;20051;-73
2022/01/07 10:50:37;;;;;;;9.00;2.60;;;4.60;99.90;;;;;;5117741;27;20496;-73
2022/01/07 10:53:27;;;;;;;10.20;2.75;;;4.40;99.90;;;;;;5136498;27;20047;-73
2022/01/07 10:56:05;;;;;;;9.90;3.42;;;4.40;99.90;;;;;;5107859;27;20130;-73
2022/01/07 10:59:20;;;;;;;6.82;3.63;;;4.40;99.90;;;;;;5129542;27;20050;-73
2022/01/07 11:01:48;;;;;;;10.63;4.33;;;4.40;99.90;;;;;;5083205;27;20401;-73
2022/01/07 11:04:17;;;;;;;8.43;3.63;;;4.40;99.90;;;;;;5138121;27;20057;-73
2022/01/07 11:06:44;;;;;;;6.97;3.65;;;4.40;99.90;;;;;;5137447;27;20118;-73
2022/01/07 11:09:12;;;;;;;8.27;4.25;;;4.40;99.90;;;;;;5133039;27;20043;-73
2022/01/07 11:11:47;;;;;;;9.00;4.45;;;4.50;99.90;;;;;;5138099;27;20045;-74
2022/01/07 11:14:16;;;;;;;9.73;5.28;;;4.70;99.90;;;;;;5156980;27;20041;-73
2022/01/07 11:16:42;;;;;;;11.25;6.15;;;4.60;99.90;;;;;;5138276;27;20039;-73
2022/01/07 11:19:09;;;;;;;10.43;5.57;;;4.60;99.90;;;;;;5137560;27;20118;-74
2022/01/07 11:21:36;;;;;;;9.13;5.45;;;4.70;99.90;;;;;;5138028;27;20050;-73
2022/01/07 11:24:53;;;;;;;13.80;6.43;;;4.80;99.90;;;;;;5156272;27;20070;-73
2022/01/07 11:27:21;;;;;;;16.35;6.55;;;4.80;99.90;;;;;;5134752;27;20128;-74
2022/01/07 11:29:52;;;;;;;13.90;7.97;;;4.90;99.90;;;;;;5156651;27;20034;-74
2022/01/07 11:32:44;;;;;;;14.23;6.80;;;4.90;99.90;;;;;;5137849;27;20055;-73
2022/01/07 11:35:22;;;;;;;13.57;6.82;;;5.00;99.90;;;;;;5156126;27;20055;-73
2022/01/07 11:37:51;;;;;;;16.88;8.60;;;5.10;99.90;;;;;;5137812;27;20086;-73
2022/01/07 11:40:29;;;;;;;15.38;7.32;;;5.20;99.90;;;;;;5155572;27;20106;-73
2022/01/07 11:43:04;;;;;;;20.33;7.47;;;5.30;99.90;;;;;;5137412;27;20117;-73
2022/01/07 11:45:33;;;;;;;16.45;7.85;;;5.30;99.90;;;;;;5137442;27;20090;-73
2022/01/07 11:48:25;;;;;;;19.52;7.72;;;5.40;99.90;;;;;;5134419;27;20038;-73
2022/01/07 11:51:01;;;;;;;15.13;7.00;;;5.40;99.90;;;;;;5137386;27;20057;-74
2022/01/07 11:53:35;;;;;;;18.00;7.88;;;5.50;99.90;;;;;;5155445;27;20089;-73
2022/01/07 11:56:04;;;;;;;22.75;8.68;;;5.40;99.90;;;;;;5151935;27;20039;-73
2022/01/07 11:58:47;;;;;;;22.30;8.80;;;5.40;99.90;;;;;;5137636;27;20042;-73
2022/01/07 12:01:35;;;;;;;17.38;8.00;;;5.40;99.90;;;;;;5154919;27;20042;-73
2022/01/07 12:04:26;;;;;;;19.33;7.78;;;5.40;99.90;;;;;;5155880;27;20076;-72
2022/01/07 12:06:54;;;;;;;13.10;4.97;;;5.40;99.90;;;;;;5137321;27;20086;-73
2022/01/07 12:09:28;;;;;;;15.40;5.63;;;5.30;99.90;;;;;;5136225;27;20050;-73
2022/01/07 12:11:59;;;;;;;13.95;5.60;;;5.30;99.90;;;;;;5121059;27;20477;-73
2022/01/07 12:14:34;;;;;;;13.32;4.18;;;5.40;99.90;;;;;;5120081;27;20055;-73
2022/01/07 12:17:01;;;;;;;11.73;3.45;;;5.50;99.90;;;;;;5136406;27;20080;-73
2022/01/07 12:19:38;;;;;;;9.65;3.10;;;5.50;99.90;;;;;;5120330;27;20058;-72
2022/01/07 12:22:10;;;;;;;11.65;3.70;;;5.50;99.90;;;;;;5135822;27;20043;-73
2022/01/07 12:24:37;;;;;;;13.13;3.20;;;5.50;99.90;;;;;;5136629;27;20130;-73
2022/01/07 12:27:11;;;;;;;8.30;2.80;;;5.50;99.90;;;;;;5136775;27;20469;-73
2022/01/07 12:29:42;;;;;;;13.13;3.30;;;5.40;99.90;;;;;;5134501;27;20047;-73
2022/01/07 12:32:09;;;;;;;10.02;3.40;;;5.40;99.90;;;;;;5155297;27;20588;-73
2022/01/07 12:34:44;;;;;;;9.55;3.17;;;5.50;99.90;;;;;;5136968;27;20083;-72
2022/01/07 12:37:11;;;;;;;;;;;5.50;99.90;;;;;;5136490;27;20054;-73
2022/01/07 12:39:40;;;;;;;10.88;1.95;;;5.50;99.90;;;;;;5136414;27;20005;-73
2022/01/07 12:42:06;;;;;;;10.95;2.78;;;5.50;99.90;;;;;;5136495;27;20182;-73
2022/01/07 12:44:39;;;;;;;21.58;3.70;;;5.50;99.90;;;;;;5116924;27;20055;-73
2022/01/07 12:47:06;;;;;;;21.60;2.67;;;5.50;99.90;;;;;;5136535;27;20381;-73
2022/01/07 12:49:37;;;;;;;9.52;2.35;;;5.50;99.90;;;;;;5136669;27;20501;-73
2022/01/07 12:52:09;;;;;;;15.00;2.55;;;5.50;99.90;;;;;;5134578;27;20050;-73
2022/01/07 12:54:35;;;;;;;8.85;2.30;;;5.50;99.90;;;;;;5135890;27;20134;-73
2022/01/07 12:57:02;;;;;;;12.82;2.90;;;5.50;99.90;;;;;;5136611;27;20050;-73
2022/01/07 12:59:31;;;;;;;10.07;2.05;;;5.60;99.90;;;;;;5154499;27;20042;-73